sensor_id;sensor_type;location;lat;lon;timestamp;P1;durP1;ratioP1;P2;durP2;ratioP2
70800;SDS011;59616;52.170;5.386;2023-05-16T08:12:57;9.25;;;1.20;;
70800;SDS011;59616;52.170;5.386;2023-05-16T08:15:25;6.15;;;1.05;;
70800;SDS011;59616;52.170;5.386;2023-05-16T08:17:55;4.80;;;1.20;;
70800;SDS011;59616;52.170;5.386;2023-05-16T08:20:26;4.05;;;0.73;;
70800;SDS011;59616;52.170;5.386;2023-05-16T08:22:54;6.60;;;0.80;;
70800;SDS011;59616;52.170;5.386;2023-05-16T08:25:21;4.72;;;1.05;;
70800;SDS011;59616;52.170;5.386;2023-05-16T08:27:48;4.53;;;0.70;;
70800;SDS011;59616;52.170;5.386;2023-05-16T08:30:16;4.70;;;0.90;;
70800;SDS011;59616;52.170;5.386;2023-05-16T08:32:44;4.38;;;0.80;;
70800;SDS011;59616;52.170;5.386;2023-05-16T08:35:11;8.27;;;0.82;;
70800;SDS011;59616;52.170;5.386;2023-05-16T08:37:38;6.50;;;1.00;;
70800;SDS011;59616;52.170;5.386;2023-05-16T08:40:06;7.13;;;0.95;;
70800;SDS011;59616;52.170;5.386;2023-05-16T08:42:36;3.85;;;0.73;;
70800;SDS011;59616;52.170;5.386;2023-05-16T08:45:03;4.15;;;0.95;;
70800;SDS011;59616;52.170;5.386;2023-05-16T08:47:31;8.60;;;1.25;;
70800;SDS011;59616;52.170;5.386;2023-05-16T08:49:59;4.55;;;0.88;;
70800;SDS011;59616;52.170;5.386;2023-05-16T08:52:29;4.38;;;0.88;;
70800;SDS011;59616;52.170;5.386;2023-05-16T08:55:00;5.20;;;0.95;;
70800;SDS011;59616;52.170;5.386;2023-05-16T08:57:37;10.50;;;1.27;;
70800;SDS011;59616;52.170;5.386;2023-05-16T09:00:08;4.38;;;0.80;;
70800;SDS011;59616;52.170;5.386;2023-05-16T09:02:39;5.72;;;0.90;;
70800;SDS011;59616;52.170;5.386;2023-05-16T09:05:07;6.72;;;0.95;;
70800;SDS011;59616;52.170;5.386;2023-05-16T09:07:35;5.55;;;0.93;;
70800;SDS011;59616;52.170;5.386;2023-05-16T09:10:02;4.88;;;0.80;;
70800;SDS011;59616;52.170;5.386;2023-05-16T09:12:32;7.82;;;1.10;;
70800;SDS011;59616;52.170;5.386;2023-05-16T09:15:00;3.83;;;0.68;;
70800;SDS011;59616;52.170;5.386;2023-05-16T09:18:29;3.88;;;0.60;;
70800;SDS011;59616;52.170;5.386;2023-05-16T09:20:28;7.22;;;1.00;;
70800;SDS011;59616;52.170;5.386;2023-05-16T09:22:57;6.13;;;0.77;;
70800;SDS011;59616;52.170;5.386;2023-05-16T09:25:25;2.53;;;0.60;;
70800;SDS011;59616;52.170;5.386;2023-05-16T09:27:59;3.50;;;0.63;;
70800;SDS011;59616;52.170;5.386;2023-05-16T09:30:28;5.03;;;0.70;;
70800;SDS011;59616;52.170;5.386;2023-05-16T09:32:56;4.80;;;0.60;;
70800;SDS011;59616;52.170;5.386;2023-05-16T09:35:24;5.75;;;0.77;;
70800;SDS011;59616;52.170;5.386;2023-05-16T09:37:55;8.18;;;0.70;;
70800;SDS011;59616;52.170;5.386;2023-05-16T09:40:22;1.45;;;0.57;;
70800;SDS011;59616;52.170;5.386;2023-05-16T09:43:00;5.40;;;1.10;;
70800;SDS011;59616;52.170;5.386;2023-05-16T09:45:29;6.40;;;1.05;;
70800;SDS011;59616;52.170;5.386;2023-05-16T09:48:06;7.03;;;0.90;;
70800;SDS011;59616;52.170;5.386;2023-05-16T09:50:34;6.25;;;0.98;;
70800;SDS011;59616;52.170;5.386;2023-05-16T09:53:02;5.00;;;0.60;;
70800;SDS011;59616;52.170;5.386;2023-05-16T09:55:30;7.35;;;1.15;;
70800;SDS011;59616;52.170;5.386;2023-05-16T09:57:58;7.20;;;0.95;;
70800;SDS011;59616;52.170;5.386;2023-05-16T10:00:30;4.60;;;0.77;;
70800;SDS011;59616;52.170;5.386;2023-05-16T10:02:59;7.25;;;0.95;;
70800;SDS011;59616;52.170;5.386;2023-05-16T10:05:31;5.07;;;0.90;;
70800;SDS011;59616;52.170;5.386;2023-05-16T10:07:58;5.88;;;0.88;;
70800;SDS011;59616;52.170;5.386;2023-05-16T10:10:27;3.13;;;0.60;;
70800;SDS011;59616;52.170;5.386;2023-05-16T10:12:55;5.10;;;0.88;;
70800;SDS011;59616;52.170;5.386;2023-05-16T10:15:24;2.28;;;0.73;;
70800;SDS011;59616;52.170;5.386;2023-05-16T10:17:52;1.48;;;0.47;;
70800;SDS011;59616;52.170;5.386;2023-05-16T10:20:22;7.25;;;0.98;;
70800;SDS011;59616;52.170;5.386;2023-05-16T10:22:49;7.10;;;0.88;;
70800;SDS011;59616;52.170;5.386;2023-05-16T10:25:38;7.03;;;1.40;;
70800;SDS011;59616;52.170;5.386;2023-05-16T10:28:09;8.02;;;1.20;;
70800;SDS011;59616;52.170;5.386;2023-05-16T10:30:39;4.72;;;0.90;;
70800;SDS011;59616;52.170;5.386;2023-05-16T10:33:10;6.85;;;1.25;;
70800;SDS011;59616;52.170;5.386;2023-05-16T10:35:38;3.63;;;0.80;;
70800;SDS011;59616;52.170;5.386;2023-05-16T10:38:06;4.60;;;0.70;;
70800;SDS011;59616;52.170;5.386;2023-05-16T10:40:34;4.28;;;0.80;;
70800;SDS011;59616;52.170;5.386;2023-05-16T10:43:02;5.97;;;1.05;;
70800;SDS011;59616;52.170;5.386;2023-05-16T10:45:30;9.82;;;1.20;;
70800;SDS011;59616;52.170;5.386;2023-05-16T10:47:58;7.60;;;0.90;;
70800;SDS011;59616;52.170;5.386;2023-05-16T10:51:00;8.23;;;1.15;;
70800;SDS011;59616;52.170;5.386;2023-05-16T10:53:20;5.97;;;0.82;;
70800;SDS011;59616;52.170;5.386;2023-05-16T11:01:13;4.80;;;0.95;;
70800;SDS011;59616;52.170;5.386;2023-05-16T11:03:58;5.95;;;0.70;;
70800;SDS011;59616;52.170;5.386;2023-05-16T11:14:08;1.58;;;0.50;;
70800;SDS011;59616;52.170;5.386;2023-05-16T11:16:36;3.65;;;0.65;;
70800;SDS011;59616;52.170;5.386;2023-05-16T11:19:05;4.43;;;0.80;;
70800;SDS011;59616;52.170;5.386;2023-05-16T11:24:47;4.03;;;0.60;;
70800;SDS011;59616;52.170;5.386;2023-05-16T11:29:49;5.63;;;0.95;;
70800;SDS011;59616;52.170;5.386;2023-05-16T11:32:19;5.40;;;0.95;;
70800;SDS011;59616;52.170;5.386;2023-05-16T11:34:48;7.22;;;0.90;;
70800;SDS011;59616;52.170;5.386;2023-05-16T11:37:16;4.80;;;0.90;;
70800;SDS011;59616;52.170;5.386;2023-05-16T11:39:45;5.55;;;0.80;;
70800;SDS011;59616;52.170;5.386;2023-05-16T11:42:12;5.47;;;0.80;;
70800;SDS011;59616;52.170;5.386;2023-05-16T11:44:40;4.55;;;0.95;;
70800;SDS011;59616;52.170;5.386;2023-05-16T11:47:07;4.57;;;0.80;;
70800;SDS011;59616;52.170;5.386;2023-05-16T11:49:35;8.60;;;1.15;;
70800;SDS011;59616;52.170;5.386;2023-05-16T11:52:02;6.90;;;1.17;;
70800;SDS011;59616;52.170;5.386;2023-05-16T11:54:30;4.57;;;0.88;;
70800;SDS011;59616;52.170;5.386;2023-05-16T11:56:59;5.25;;;0.80;;
70800;SDS011;59616;52.170;5.386;2023-05-16T11:59:27;7.13;;;1.00;;
70800;SDS011;59616;52.170;5.386;2023-05-16T12:01:54;7.05;;;1.10;;
70800;SDS011;59616;52.170;5.386;2023-05-16T12:04:21;4.25;;;0.85;;
70800;SDS011;59616;52.170;5.386;2023-05-16T12:06:56;7.63;;;0.90;;
70800;SDS011;59616;52.170;5.386;2023-05-16T12:09:24;3.13;;;0.73;;
70800;SDS011;59616;52.170;5.386;2023-05-16T12:11:51;5.47;;;0.90;;
70800;SDS011;59616;52.170;5.386;2023-05-16T12:14:19;4.70;;;0.80;;
70800;SDS011;59616;52.170;5.386;2023-05-16T12:16:46;4.78;;;0.75;;
70800;SDS011;59616;52.170;5.386;2023-05-16T12:19:14;6.75;;;1.00;;
70800;SDS011;59616;52.170;5.386;2023-05-16T12:21:42;5.45;;;0.70;;
70800;SDS011;59616;52.170;5.386;2023-05-16T12:24:10;3.80;;;0.82;;
70800;SDS011;59616;52.170;5.386;2023-05-16T12:26:38;5.80;;;0.82;;
70800;SDS011;59616;52.170;5.386;2023-05-16T12:29:06;4.32;;;0.90;;
70800;SDS011;59616;52.170;5.386;2023-05-16T12:31:40;6.18;;;1.00;;
70800;SDS011;59616;52.170;5.386;2023-05-16T12:34:17;6.03;;;0.90;;
70800;SDS011;59616;52.170;5.386;2023-05-16T12:36:49;5.57;;;0.80;;
70800;SDS011;59616;52.170;5.386;2023-05-16T12:39:16;6.20;;;1.10;;
70800;SDS011;59616;52.170;5.386;2023-05-16T12:41:44;3.75;;;0.80;;
70800;SDS011;59616;52.170;5.386;2023-05-16T12:44:15;4.57;;;0.77;;
70800;SDS011;59616;52.170;5.386;2023-05-16T12:46:50;9.02;;;1.23;;
70800;SDS011;59616;52.170;5.386;2023-05-16T12:49:20;6.40;;;1.25;;
70800;SDS011;59616;52.170;5.386;2023-05-16T12:51:52;8.85;;;1.10;;
70800;SDS011;59616;52.170;5.386;2023-05-16T12:54:20;4.80;;;0.80;;
70800;SDS011;59616;52.170;5.386;2023-05-16T12:56:48;7.95;;;1.35;;
70800;SDS011;59616;52.170;5.386;2023-05-16T12:59:15;6.55;;;1.05;;
70800;SDS011;59616;52.170;5.386;2023-05-16T13:01:44;8.52;;;1.27;;
70800;SDS011;59616;52.170;5.386;2023-05-16T13:04:11;6.18;;;0.90;;
70800;SDS011;59616;52.170;5.386;2023-05-16T13:06:45;6.32;;;0.80;;
70800;SDS011;59616;52.170;5.386;2023-05-16T13:09:24;6.45;;;1.05;;
70800;SDS011;59616;52.170;5.386;2023-05-16T13:11:57;6.22;;;1.00;;
70800;SDS011;59616;52.170;5.386;2023-05-16T13:14:25;6.60;;;1.20;;
70800;SDS011;59616;52.170;5.386;2023-05-16T13:16:52;5.25;;;0.80;;
70800;SDS011;59616;52.170;5.386;2023-05-16T13:19:19;5.90;;;0.80;;
70800;SDS011;59616;52.170;5.386;2023-05-16T13:21:48;5.57;;;0.88;;
70800;SDS011;59616;52.170;5.386;2023-05-16T13:24:15;3.63;;;0.90;;
70800;SDS011;59616;52.170;5.386;2023-05-16T13:26:42;5.50;;;1.10;;
70800;SDS011;59616;52.170;5.386;2023-05-16T13:29:10;4.57;;;1.00;;
70800;SDS011;59616;52.170;5.386;2023-05-16T13:31:38;3.78;;;0.88;;
70800;SDS011;59616;52.170;5.386;2023-05-16T13:34:05;3.88;;;0.70;;
70800;SDS011;59616;52.170;5.386;2023-05-16T13:36:32;5.40;;;0.93;;
70800;SDS011;59616;52.170;5.386;2023-05-16T13:39:18;8.10;;;1.00;;
70800;SDS011;59616;52.170;5.386;2023-05-16T13:41:45;5.68;;;1.30;;
70800;SDS011;59616;52.170;5.386;2023-05-16T13:44:14;3.83;;;0.70;;
70800;SDS011;59616;52.170;5.386;2023-05-16T13:46:42;6.05;;;0.85;;
70800;SDS011;59616;52.170;5.386;2023-05-16T13:49:09;4.82;;;1.10;;
70800;SDS011;59616;52.170;5.386;2023-05-16T13:51:36;6.38;;;0.80;;
70800;SDS011;59616;52.170;5.386;2023-05-16T13:54:03;4.38;;;0.85;;
70800;SDS011;59616;52.170;5.386;2023-05-16T13:56:31;7.35;;;0.93;;
70800;SDS011;59616;52.170;5.386;2023-05-16T13:58:58;10.50;;;1.45;;
70800;SDS011;59616;52.170;5.386;2023-05-16T14:01:32;5.68;;;0.68;;
70800;SDS011;59616;52.170;5.386;2023-05-16T14:03:59;7.78;;;1.00;;
70800;SDS011;59616;52.170;5.386;2023-05-16T14:06:27;4.82;;;0.90;;
70800;SDS011;59616;52.170;5.386;2023-05-16T14:08:54;5.22;;;0.93;;
70800;SDS011;59616;52.170;5.386;2023-05-16T14:11:21;4.10;;;0.70;;
70800;SDS011;59616;52.170;5.386;2023-05-16T14:16:21;8.07;;;1.23;;
70800;SDS011;59616;52.170;5.386;2023-05-16T14:18:49;5.88;;;1.00;;
70800;SDS011;59616;52.170;5.386;2023-05-16T14:21:16;5.78;;;0.90;;
70800;SDS011;59616;52.170;5.386;2023-05-16T14:23:44;4.25;;;0.70;;
70800;SDS011;59616;52.170;5.386;2023-05-16T14:26:12;6.88;;;1.10;;
70800;SDS011;59616;52.170;5.386;2023-05-16T14:28:39;5.00;;;1.00;;
70800;SDS011;59616;52.170;5.386;2023-05-16T14:31:06;7.63;;;1.17;;
70800;SDS011;59616;52.170;5.386;2023-05-16T14:33:34;5.85;;;0.80;;
70800;SDS011;59616;52.170;5.386;2023-05-16T14:36:01;6.88;;;0.90;;
70800;SDS011;59616;52.170;5.386;2023-05-16T14:38:30;2.60;;;0.60;;
70800;SDS011;59616;52.170;5.386;2023-05-16T14:40:57;5.40;;;0.85;;
70800;SDS011;59616;52.170;5.386;2023-05-16T14:43:24;5.50;;;0.90;;
70800;SDS011;59616;52.170;5.386;2023-05-16T14:45:52;5.22;;;0.80;;
70800;SDS011;59616;52.170;5.386;2023-05-16T14:48:21;7.78;;;1.35;;
70800;SDS011;59616;52.170;5.386;2023-05-16T14:50:49;4.85;;;0.80;;
70800;SDS011;59616;52.170;5.386;2023-05-16T14:53:17;6.72;;;1.08;;
70800;SDS011;59616;52.170;5.386;2023-05-16T14:55:44;3.75;;;0.80;;
70800;SDS011;59616;52.170;5.386;2023-05-16T14:58:11;4.53;;;0.80;;
70800;SDS011;59616;52.170;5.386;2023-05-16T15:00:38;5.78;;;0.80;;
70800;SDS011;59616;52.170;5.386;2023-05-16T15:03:06;3.67;;;0.77;;
70800;SDS011;59616;52.170;5.386;2023-05-16T15:05:33;2.55;;;0.70;;
70800;SDS011;59616;52.170;5.386;2023-05-16T15:08:01;4.50;;;0.70;;
70800;SDS011;59616;52.170;5.386;2023-05-16T15:10:28;5.45;;;0.90;;
70800;SDS011;59616;52.170;5.386;2023-05-16T15:12:55;5.70;;;0.90;;
70800;SDS011;59616;52.170;5.386;2023-05-16T15:15:23;5.18;;;0.70;;
70800;SDS011;59616;52.170;5.386;2023-05-16T15:17:50;3.92;;;0.70;;
70800;SDS011;59616;52.170;5.386;2023-05-16T15:20:19;3.72;;;0.73;;
70800;SDS011;59616;52.170;5.386;2023-05-16T15:22:48;5.43;;;0.95;;
70800;SDS011;59616;52.170;5.386;2023-05-16T15:25:15;5.38;;;0.82;;
70800;SDS011;59616;52.170;5.386;2023-05-16T15:27:42;5.18;;;0.65;;
70800;SDS011;59616;52.170;5.386;2023-05-16T15:30:11;3.10;;;0.80;;
70800;SDS011;59616;52.170;5.386;2023-05-16T15:32:38;2.67;;;0.90;;
70800;SDS011;59616;52.170;5.386;2023-05-16T15:35:06;7.30;;;0.75;;
70800;SDS011;59616;52.170;5.386;2023-05-16T15:37:33;3.50;;;0.77;;
70800;SDS011;59616;52.170;5.386;2023-05-16T15:40:01;5.78;;;1.02;;
70800;SDS011;59616;52.170;5.386;2023-05-16T15:42:29;6.22;;;1.30;;
70800;SDS011;59616;52.170;5.386;2023-05-16T15:44:57;6.50;;;1.17;;
70800;SDS011;59616;52.170;5.386;2023-05-16T15:47:24;3.78;;;0.95;;
70800;SDS011;59616;52.170;5.386;2023-05-16T15:49:52;2.88;;;0.93;;
70800;SDS011;59616;52.170;5.386;2023-05-16T15:52:19;4.35;;;1.10;;
70800;SDS011;59616;52.170;5.386;2023-05-16T15:54:48;4.65;;;1.20;;
70800;SDS011;59616;52.170;5.386;2023-05-16T15:57:15;6.43;;;1.10;;
70800;SDS011;59616;52.170;5.386;2023-05-16T15:59:43;4.90;;;1.00;;
70800;SDS011;59616;52.170;5.386;2023-05-16T16:02:10;3.50;;;0.90;;
70800;SDS011;59616;52.170;5.386;2023-05-16T16:04:37;5.15;;;1.17;;
70800;SDS011;59616;52.170;5.386;2023-05-16T16:07:05;5.28;;;1.10;;
70800;SDS011;59616;52.170;5.386;2023-05-16T16:09:32;3.97;;;0.90;;
70800;SDS011;59616;52.170;5.386;2023-05-16T16:11:59;7.60;;;1.33;;
70800;SDS011;59616;52.170;5.386;2023-05-16T16:14:27;6.30;;;1.23;;
70800;SDS011;59616;52.170;5.386;2023-05-16T16:16:54;5.10;;;1.10;;
70800;SDS011;59616;52.170;5.386;2023-05-16T16:19:22;5.03;;;1.35;;
70800;SDS011;59616;52.170;5.386;2023-05-16T16:21:50;7.97;;;2.08;;
70800;SDS011;59616;52.170;5.386;2023-05-16T16:24:17;4.72;;;1.20;;
70800;SDS011;59616;52.170;5.386;2023-05-16T16:26:45;4.80;;;1.30;;
70800;SDS011;59616;52.170;5.386;2023-05-16T16:29:12;7.47;;;1.50;;
70800;SDS011;59616;52.170;5.386;2023-05-16T16:31:39;5.93;;;1.50;;
70800;SDS011;59616;52.170;5.386;2023-05-16T16:34:07;5.00;;;1.30;;
70800;SDS011;59616;52.170;5.386;2023-05-16T16:36:34;4.43;;;1.50;;
70800;SDS011;59616;52.170;5.386;2023-05-16T16:39:01;6.80;;;1.90;;
70800;SDS011;59616;52.170;5.386;2023-05-16T16:41:31;6.68;;;1.50;;
70800;SDS011;59616;52.170;5.386;2023-05-16T16:43:58;7.13;;;1.58;;
70800;SDS011;59616;52.170;5.386;2023-05-16T16:46:25;4.82;;;1.23;;
70800;SDS011;59616;52.170;5.386;2023-05-16T16:48:52;5.32;;;1.45;;
70800;SDS011;59616;52.170;5.386;2023-05-16T16:51:20;8.48;;;1.45;;
70800;SDS011;59616;52.170;5.386;2023-05-16T16:53:47;4.93;;;1.60;;
70800;SDS011;59616;52.170;5.386;2023-05-16T16:56:14;8.15;;;1.80;;
70800;SDS011;59616;52.170;5.386;2023-05-16T16:58:41;4.70;;;1.55;;
70800;SDS011;59616;52.170;5.386;2023-05-16T17:01:09;8.50;;;1.77;;
70800;SDS011;59616;52.170;5.386;2023-05-16T17:03:38;5.82;;;1.55;;
70800;SDS011;59616;52.170;5.386;2023-05-16T17:06:05;9.48;;;1.88;;
70800;SDS011;59616;52.170;5.386;2023-05-16T17:08:32;8.15;;;1.70;;
70800;SDS011;59616;52.170;5.386;2023-05-16T17:10:59;6.88;;;1.60;;
70800;SDS011;59616;52.170;5.386;2023-05-16T17:13:30;6.88;;;2.25;;
70800;SDS011;59616;52.170;5.386;2023-05-16T17:16:02;8.25;;;1.88;;
70800;SDS011;59616;52.170;5.386;2023-05-16T17:18:29;10.73;;;2.35;;
70800;SDS011;59616;52.170;5.386;2023-05-16T17:21:00;8.70;;;1.73;;
70800;SDS011;59616;52.170;5.386;2023-05-16T17:23:27;7.90;;;2.10;;
70800;SDS011;59616;52.170;5.386;2023-05-16T17:25:54;7.72;;;1.90;;
70800;SDS011;59616;52.170;5.386;2023-05-16T17:28:21;9.77;;;2.20;;
70800;SDS011;59616;52.170;5.386;2023-05-16T17:30:48;8.60;;;2.10;;
70800;SDS011;59616;52.170;5.386;2023-05-16T17:33:17;7.03;;;1.80;;
70800;SDS011;59616;52.170;5.386;2023-05-16T17:35:44;6.35;;;1.60;;
70800;SDS011;59616;52.170;5.386;2023-05-16T17:38:12;4.80;;;1.23;;
70800;SDS011;59616;52.170;5.386;2023-05-16T17:40:40;5.35;;;1.45;;
70800;SDS011;59616;52.170;5.386;2023-05-16T17:43:07;6.45;;;1.33;;
70800;SDS011;59616;52.170;5.386;2023-05-16T17:45:34;6.45;;;1.50;;
70800;SDS011;59616;52.170;5.386;2023-05-16T17:48:01;6.05;;;1.73;;
70800;SDS011;59616;52.170;5.386;2023-05-16T17:50:29;4.35;;;1.05;;
70800;SDS011;59616;52.170;5.386;2023-05-16T17:52:57;4.97;;;1.17;;
70800;SDS011;59616;52.170;5.386;2023-05-16T17:55:25;6.80;;;1.40;;
70800;SDS011;59616;52.170;5.386;2023-05-16T17:57:52;8.52;;;1.42;;
70800;SDS011;59616;52.170;5.386;2023-05-16T18:00:20;7.55;;;1.30;;
70800;SDS011;59616;52.170;5.386;2023-05-16T18:02:48;6.30;;;1.48;;
70800;SDS011;59616;52.170;5.386;2023-05-16T18:05:15;7.65;;;1.08;;
70800;SDS011;59616;52.170;5.386;2023-05-16T18:07:43;8.88;;;1.13;;
70800;SDS011;59616;52.170;5.386;2023-05-16T18:10:10;5.35;;;1.55;;
70800;SDS011;59616;52.170;5.386;2023-05-16T18:12:38;5.05;;;1.13;;
70800;SDS011;59616;52.170;5.386;2023-05-16T18:15:06;7.00;;;1.45;;
70800;SDS011;59616;52.170;5.386;2023-05-16T18:17:35;6.68;;;1.17;;
70800;SDS011;59616;52.170;5.386;2023-05-16T18:20:03;7.68;;;1.50;;
70800;SDS011;59616;52.170;5.386;2023-05-16T18:22:35;8.48;;;1.45;;
70800;SDS011;59616;52.170;5.386;2023-05-16T18:25:03;6.75;;;1.20;;
70800;SDS011;59616;52.170;5.386;2023-05-16T18:27:31;7.63;;;1.40;;
70800;SDS011;59616;52.170;5.386;2023-05-16T18:29:59;8.40;;;1.50;;
70800;SDS011;59616;52.170;5.386;2023-05-16T18:32:26;6.13;;;1.23;;
70800;SDS011;59616;52.170;5.386;2023-05-16T18:34:53;6.93;;;1.10;;
70800;SDS011;59616;52.170;5.386;2023-05-16T18:37:21;5.60;;;1.10;;
70800;SDS011;59616;52.170;5.386;2023-05-16T18:39:48;6.43;;;1.50;;
70800;SDS011;59616;52.170;5.386;2023-05-16T18:42:16;10.65;;;1.35;;
70800;SDS011;59616;52.170;5.386;2023-05-16T18:44:44;10.73;;;1.48;;
70800;SDS011;59616;52.170;5.386;2023-05-16T18:47:11;8.30;;;1.33;;
70800;SDS011;59616;52.170;5.386;2023-05-16T18:49:41;8.00;;;1.20;;
70800;SDS011;59616;52.170;5.386;2023-05-16T18:52:09;7.07;;;1.30;;
70800;SDS011;59616;52.170;5.386;2023-05-16T18:54:37;7.05;;;1.40;;
70800;SDS011;59616;52.170;5.386;2023-05-16T18:57:05;7.65;;;1.73;;
70800;SDS011;59616;52.170;5.386;2023-05-16T18:59:33;9.80;;;1.88;;
70800;SDS011;59616;52.170;5.386;2023-05-16T19:02:01;9.88;;;1.48;;
70800;SDS011;59616;52.170;5.386;2023-05-16T19:04:29;8.48;;;1.58;;
70800;SDS011;59616;52.170;5.386;2023-05-16T19:06:56;11.27;;;1.60;;
70800;SDS011;59616;52.170;5.386;2023-05-16T19:09:24;8.38;;;1.50;;
70800;SDS011;59616;52.170;5.386;2023-05-16T19:11:51;7.82;;;1.23;;
70800;SDS011;59616;52.170;5.386;2023-05-16T19:14:18;9.07;;;1.50;;
70800;SDS011;59616;52.170;5.386;2023-05-16T19:16:45;8.57;;;1.60;;
70800;SDS011;59616;52.170;5.386;2023-05-16T19:19:13;10.02;;;1.48;;
70800;SDS011;59616;52.170;5.386;2023-05-16T19:21:40;13.48;;;1.80;;
70800;SDS011;59616;52.170;5.386;2023-05-16T19:24:07;5.43;;;1.30;;
70800;SDS011;59616;52.170;5.386;2023-05-16T19:26:35;5.60;;;1.48;;
70800;SDS011;59616;52.170;5.386;2023-05-16T19:29:02;10.85;;;1.70;;
70800;SDS011;59616;52.170;5.386;2023-05-16T19:31:29;7.35;;;1.55;;
70800;SDS011;59616;52.170;5.386;2023-05-16T19:33:57;11.40;;;2.20;;
70800;SDS011;59616;52.170;5.386;2023-05-16T19:36:24;8.98;;;1.65;;
70800;SDS011;59616;52.170;5.386;2023-05-16T19:38:51;9.95;;;1.80;;
70800;SDS011;59616;52.170;5.386;2023-05-16T19:41:18;10.25;;;1.85;;
70800;SDS011;59616;52.170;5.386;2023-05-16T19:43:47;10.98;;;2.00;;
70800;SDS011;59616;52.170;5.386;2023-05-16T19:46:14;10.38;;;1.77;;
70800;SDS011;59616;52.170;5.386;2023-05-16T19:48:41;6.93;;;1.60;;
70800;SDS011;59616;52.170;5.386;2023-05-16T19:51:08;9.20;;;2.00;;
70800;SDS011;59616;52.170;5.386;2023-05-16T19:53:36;14.80;;;1.70;;
70800;SDS011;59616;52.170;5.386;2023-05-16T19:56:03;9.95;;;2.00;;
70800;SDS011;59616;52.170;5.386;2023-05-16T19:58:31;7.03;;;1.60;;
70800;SDS011;59616;52.170;5.386;2023-05-16T20:00:58;12.27;;;2.05;;
70800;SDS011;59616;52.170;5.386;2023-05-16T20:03:25;7.20;;;1.67;;
70800;SDS011;59616;52.170;5.386;2023-05-16T20:05:53;13.02;;;2.40;;
70800;SDS011;59616;52.170;5.386;2023-05-16T20:08:20;8.48;;;1.55;;
70800;SDS011;59616;52.170;5.386;2023-05-16T20:10:47;10.23;;;2.00;;
70800;SDS011;59616;52.170;5.386;2023-05-16T20:13:15;9.80;;;1.92;;
70800;SDS011;59616;52.170;5.386;2023-05-16T20:15:46;10.75;;;2.08;;
70800;SDS011;59616;52.170;5.386;2023-05-16T20:18:13;10.02;;;2.05;;
70800;SDS011;59616;52.170;5.386;2023-05-16T20:20:41;10.68;;;2.13;;
70800;SDS011;59616;52.170;5.386;2023-05-16T20:23:08;9.10;;;1.73;;
70800;SDS011;59616;52.170;5.386;2023-05-16T20:25:36;8.88;;;1.83;;
70800;SDS011;59616;52.170;5.386;2023-05-16T20:28:03;11.98;;;1.52;;
70800;SDS011;59616;52.170;5.386;2023-05-16T20:30:31;18.15;;;2.15;;
70800;SDS011;59616;52.170;5.386;2023-05-16T20:32:58;15.30;;;2.30;;
70800;SDS011;59616;52.170;5.386;2023-05-16T20:35:26;12.27;;;2.28;;
70800;SDS011;59616;52.170;5.386;2023-05-16T20:37:54;13.93;;;2.40;;
70800;SDS011;59616;52.170;5.386;2023-05-16T20:40:21;14.18;;;1.90;;
70800;SDS011;59616;52.170;5.386;2023-05-16T20:42:49;12.50;;;2.35;;
70800;SDS011;59616;52.170;5.386;2023-05-16T20:45:16;11.63;;;2.17;;
70800;SDS011;59616;52.170;5.386;2023-05-16T20:47:43;11.10;;;1.95;;
70800;SDS011;59616;52.170;5.386;2023-05-16T20:50:12;11.75;;;2.22;;
70800;SDS011;59616;52.170;5.386;2023-05-16T20:52:39;15.30;;;1.92;;
70800;SDS011;59616;52.170;5.386;2023-05-16T20:55:07;9.07;;;2.08;;
70800;SDS011;59616;52.170;5.386;2023-05-16T20:57:34;10.70;;;1.83;;
70800;SDS011;59616;52.170;5.386;2023-05-16T21:00:01;8.63;;;2.00;;
70800;SDS011;59616;52.170;5.386;2023-05-16T21:02:28;10.70;;;2.10;;
70800;SDS011;59616;52.170;5.386;2023-05-16T21:04:56;9.43;;;1.92;;
70800;SDS011;59616;52.170;5.386;2023-05-16T21:07:35;10.48;;;2.10;;
70800;SDS011;59616;52.170;5.386;2023-05-16T21:10:02;12.77;;;1.92;;
70800;SDS011;59616;52.170;5.386;2023-05-16T21:12:29;12.30;;;2.20;;
70800;SDS011;59616;52.170;5.386;2023-05-16T21:14:57;15.70;;;2.00;;
70800;SDS011;59616;52.170;5.386;2023-05-16T21:17:25;15.05;;;2.22;;
70800;SDS011;59616;52.170;5.386;2023-05-16T21:19:52;10.18;;;1.98;;
70800;SDS011;59616;52.170;5.386;2023-05-16T21:22:19;12.35;;;1.88;;
70800;SDS011;59616;52.170;5.386;2023-05-16T21:24:47;6.07;;;1.88;;
70800;SDS011;59616;52.170;5.386;2023-05-16T21:27:14;14.27;;;2.22;;
70800;SDS011;59616;52.170;5.386;2023-05-16T21:29:42;9.52;;;1.95;;
70800;SDS011;59616;52.170;5.386;2023-05-16T21:32:10;9.65;;;1.95;;
70800;SDS011;59616;52.170;5.386;2023-05-16T21:34:41;11.50;;;2.00;;
70800;SDS011;59616;52.170;5.386;2023-05-16T21:37:08;9.25;;;2.20;;
70800;SDS011;59616;52.170;5.386;2023-05-16T21:39:37;12.75;;;2.15;;
70800;SDS011;59616;52.170;5.386;2023-05-16T21:42:04;11.32;;;2.70;;
70800;SDS011;59616;52.170;5.386;2023-05-16T21:44:31;10.48;;;2.22;;
70800;SDS011;59616;52.170;5.386;2023-05-16T21:46:58;12.32;;;2.55;;
70800;SDS011;59616;52.170;5.386;2023-05-16T21:49:26;11.55;;;2.00;;
70800;SDS011;59616;52.170;5.386;2023-05-16T21:51:53;15.45;;;2.80;;
70800;SDS011;59616;52.170;5.386;2023-05-16T21:54:20;9.88;;;2.05;;
70800;SDS011;59616;52.170;5.386;2023-05-16T21:56:47;11.63;;;2.10;;
70800;SDS011;59616;52.170;5.386;2023-05-16T21:59:15;10.57;;;1.90;;
70800;SDS011;59616;52.170;5.386;2023-05-16T22:01:42;12.07;;;2.42;;
70800;SDS011;59616;52.170;5.386;2023-05-16T22:04:09;12.27;;;2.25;;
70800;SDS011;59616;52.170;5.386;2023-05-16T22:06:37;8.18;;;1.90;;
70800;SDS011;59616;52.170;5.386;2023-05-16T22:09:04;12.55;;;2.53;;
70800;SDS011;59616;52.170;5.386;2023-05-16T22:11:31;16.90;;;2.67;;
70800;SDS011;59616;52.170;5.386;2023-05-16T22:13:58;9.10;;;2.10;;
70800;SDS011;59616;52.170;5.386;2023-05-16T22:16:26;12.13;;;2.63;;
70800;SDS011;59616;52.170;5.386;2023-05-16T22:18:53;11.32;;;2.72;;
70800;SDS011;59616;52.170;5.386;2023-05-16T22:21:20;10.57;;;2.33;;
70800;SDS011;59616;52.170;5.386;2023-05-16T22:23:48;8.80;;;3.10;;
70800;SDS011;59616;52.170;5.386;2023-05-16T22:26:15;13.57;;;2.63;;
70800;SDS011;59616;52.170;5.386;2023-05-16T22:28:42;10.50;;;2.45;;
70800;SDS011;59616;52.170;5.386;2023-05-16T22:31:09;11.88;;;2.63;;
70800;SDS011;59616;52.170;5.386;2023-05-16T22:33:36;11.85;;;2.45;;
70800;SDS011;59616;52.170;5.386;2023-05-16T22:36:04;12.50;;;2.90;;
70800;SDS011;59616;52.170;5.386;2023-05-16T22:38:31;10.80;;;3.10;;
70800;SDS011;59616;52.170;5.386;2023-05-16T22:40:59;13.40;;;2.85;;
70800;SDS011;59616;52.170;5.386;2023-05-16T22:43:26;11.93;;;3.10;;
70800;SDS011;59616;52.170;5.386;2023-05-16T22:45:54;9.60;;;2.83;;
70800;SDS011;59616;52.170;5.386;2023-05-16T22:48:21;15.85;;;2.60;;
70800;SDS011;59616;52.170;5.386;2023-05-16T22:50:48;13.88;;;2.00;;
70800;SDS011;59616;52.170;5.386;2023-05-16T22:53:15;10.27;;;2.25;;
70800;SDS011;59616;52.170;5.386;2023-05-16T22:55:43;15.23;;;2.58;;
70800;SDS011;59616;52.170;5.386;2023-05-16T22:58:10;15.32;;;3.25;;
70800;SDS011;59616;52.170;5.386;2023-05-16T23:00:37;11.40;;;2.60;;
70800;SDS011;59616;52.170;5.386;2023-05-16T23:03:04;12.43;;;2.67;;
70800;SDS011;59616;52.170;5.386;2023-05-16T23:05:32;9.90;;;2.47;;
70800;SDS011;59616;52.170;5.386;2023-05-16T23:07:59;14.50;;;2.85;;
70800;SDS011;59616;52.170;5.386;2023-05-16T23:10:27;15.60;;;2.85;;
70800;SDS011;59616;52.170;5.386;2023-05-16T23:12:54;10.77;;;2.38;;
70800;SDS011;59616;52.170;5.386;2023-05-16T23:15:22;12.50;;;2.20;;
70800;SDS011;59616;52.170;5.386;2023-05-16T23:17:49;9.18;;;2.55;;
70800;SDS011;59616;52.170;5.386;2023-05-16T23:20:17;12.00;;;2.83;;
70800;SDS011;59616;52.170;5.386;2023-05-16T23:22:44;14.50;;;2.35;;
70800;SDS011;59616;52.170;5.386;2023-05-16T23:25:11;11.13;;;3.03;;